createdAt,value
2018-03-18T00:01:08.063Z,88.4
2018-03-18T00:06:07.985Z,88.3
2018-03-18T00:11:08.033Z,88.4
2018-03-18T00:16:08.048Z,87.6
2018-03-18T00:21:07.981Z,88
2018-03-18T00:26:08.041Z,88.6
2018-03-18T00:31:08.210Z,88.8
2018-03-18T00:36:07.919Z,88.4
2018-03-18T00:41:07.940Z,87.9
2018-03-18T00:46:08.184Z,93.5
2018-03-18T00:51:08.048Z,88.5
2018-03-18T00:56:10.729Z,87.3
2018-03-18T01:01:08.164Z,88.3
2018-03-18T01:06:07.954Z,87.7
2018-03-18T01:11:08.101Z,86.8
2018-03-18T01:16:07.903Z,87.2
2018-03-18T01:21:08.214Z,87.3
2018-03-18T01:26:07.944Z,88.2
2018-03-18T01:31:08.142Z,87.9
2018-03-18T01:36:08.090Z,87.8
2018-03-18T01:41:07.971Z,88.4
2018-03-18T01:46:11.041Z,89.2
2018-03-18T01:51:08.177Z,89
2018-03-18T01:56:08.103Z,88.9
2018-03-18T02:01:08.143Z,89.4
2018-03-18T02:06:08.182Z,89.8
2018-03-18T02:11:08.095Z,91.2
2018-03-18T02:16:08.135Z,91
2018-03-18T02:21:08.182Z,90.9
2018-03-18T02:26:08.212Z,92.2
2018-03-18T02:31:07.996Z,92.2
2018-03-18T02:36:10.792Z,92.7
2018-03-18T02:41:08.218Z,91.7
2018-03-18T02:46:08.168Z,92.2
2018-03-18T02:51:08.130Z,92.4
2018-03-18T02:56:08.310Z,92.8
2018-03-18T03:01:08.231Z,92.1
2018-03-18T03:06:08.094Z,92.2
2018-03-18T03:11:08.100Z,92.5
2018-03-18T03:16:08.210Z,91.7
2018-03-18T03:21:08.301Z,91.4
2018-03-18T03:26:08.105Z,92.6
2018-03-18T03:31:08.351Z,92.3
2018-03-18T03:36:08.274Z,92.1
2018-03-18T03:41:08.322Z,92
2018-03-18T03:46:08.202Z,92
2018-03-18T03:51:08.111Z,91.9
2018-03-18T03:56:08.853Z,91.8
2018-03-18T04:01:14.056Z,91.4
2018-03-18T04:06:08.998Z,91.9
2018-03-18T04:11:08.984Z,90.6
2018-03-18T04:16:09.072Z,91.3
2018-03-18T04:21:09.191Z,90.8
2018-03-18T04:26:09.215Z,90.8
2018-03-18T04:31:09.065Z,90.7
2018-03-18T04:36:09.179Z,90.2
2018-03-18T04:41:09.224Z,90.9
2018-03-18T04:46:09.280Z,90.7
2018-03-18T04:51:09.381Z,90.1
2018-03-18T04:56:09.435Z,90.1
2018-03-18T05:01:09.339Z,89.4
2018-03-18T05:06:09.352Z,89.4
2018-03-18T05:11:09.243Z,90.2
2018-03-18T05:16:09.464Z,90
2018-03-18T05:21:09.370Z,89.5
2018-03-18T05:26:09.481Z,90.6
2018-03-18T05:31:09.472Z,89.9
2018-03-18T05:36:09.360Z,89.2
2018-03-18T05:41:09.449Z,89.7
2018-03-18T05:46:09.266Z,90.3
2018-03-18T05:51:09.384Z,90
2018-03-18T05:56:09.400Z,90.7
2018-03-18T06:01:09.462Z,90.9
2018-03-18T06:06:09.518Z,90.3
2018-03-18T06:11:09.270Z,89.9
2018-03-18T06:16:09.457Z,90
2018-03-18T06:21:09.498Z,89.9
2018-03-18T06:26:09.417Z,94.3
2018-03-18T06:31:09.455Z,90.9
2018-03-18T06:36:09.478Z,89.4
2018-03-18T06:41:09.412Z,89.7
2018-03-18T06:46:09.282Z,89.7
2018-03-18T06:51:09.279Z,88.8
2018-03-18T06:56:09.408Z,89.1
2018-03-18T07:01:09.251Z,89.9
2018-03-18T07:06:09.960Z,88.7
2018-03-18T07:11:09.320Z,88.3
2018-03-18T07:16:09.252Z,87
2018-03-18T07:21:09.250Z,86.9
2018-03-18T07:26:09.320Z,86.4
2018-03-18T07:31:09.318Z,86
2018-03-18T07:36:09.311Z,85.1
2018-03-18T07:41:09.304Z,85.3
2018-03-18T07:46:09.331Z,84.1
2018-03-18T07:51:09.336Z,83.1
2018-03-18T07:56:09.350Z,82.9
2018-03-18T08:01:09.339Z,82.3
2018-03-18T08:06:09.576Z,81.4
2018-03-18T08:11:09.645Z,81.4
2018-03-18T08:16:09.294Z,81.5
2018-03-18T08:21:09.339Z,81.6
2018-03-18T08:26:11.924Z,80.6
2018-03-18T08:31:09.350Z,80.3
2018-03-18T08:36:09.351Z,80.4
2018-03-18T08:41:09.603Z,80
2018-03-18T08:46:11.706Z,79.1
2018-03-18T08:51:16.761Z,77.8
2018-03-18T08:56:11.482Z,76.4
2018-03-18T09:01:11.434Z,75.5
2018-03-18T09:06:11.449Z,75.2
2018-03-18T09:11:11.495Z,75.2
2018-03-18T09:16:11.521Z,76.3
2018-03-18T09:21:11.544Z,74.6
2018-03-18T09:26:11.518Z,74.4
2018-03-18T09:31:11.529Z,73.3
2018-03-18T09:36:11.549Z,73.7
2018-03-18T09:41:11.518Z,71.1
2018-03-18T09:46:11.536Z,70.8
2018-03-18T09:51:11.546Z,70.6
2018-03-18T09:56:11.548Z,70.3
2018-03-18T10:01:11.907Z,69.6
2018-03-18T10:06:11.612Z,68.1
2018-03-18T10:11:11.559Z,67
2018-03-18T10:16:11.736Z,68.2
2018-03-18T10:21:11.553Z,66.7
2018-03-18T10:26:12.183Z,67.9
2018-03-18T10:31:11.665Z,66.1
2018-03-18T10:36:11.632Z,67.4
2018-03-18T10:41:11.562Z,65.9
2018-03-18T10:46:11.599Z,64.7
2018-03-18T10:51:12.725Z,66
2018-03-18T10:56:11.532Z,66.1
2018-03-18T11:01:11.606Z,65.6
2018-03-18T11:06:11.945Z,65.4
2018-03-18T11:11:11.575Z,64.5
2018-03-18T11:16:11.972Z,64.8
2018-03-18T11:21:11.601Z,65.3
2018-03-18T11:26:11.591Z,65.1
2018-03-18T11:31:11.648Z,64.2
2018-03-18T11:36:11.699Z,66
2018-03-18T11:41:12.279Z,64.6
2018-03-18T11:46:11.771Z,66.3
2018-03-18T11:51:12.153Z,65.4
2018-03-18T11:56:11.607Z,63.7
2018-03-18T12:01:11.815Z,64.1
2018-03-18T12:06:11.660Z,65.8
2018-03-18T12:11:11.641Z,65.5
2018-03-18T12:16:11.627Z,66
2018-03-18T12:21:11.927Z,67.2
2018-03-18T12:26:11.706Z,66.6
2018-03-18T12:31:11.628Z,67
2018-03-18T12:36:11.758Z,66.4
2018-03-18T12:41:12.629Z,65.7
2018-03-18T12:46:11.615Z,65
2018-03-18T12:51:11.640Z,65.9
2018-03-18T12:56:11.662Z,65.6
2018-03-18T13:01:11.604Z,64.7
2018-03-18T13:06:12.896Z,65.3
2018-03-18T13:11:11.651Z,65
2018-03-18T13:16:11.660Z,66.8
2018-03-18T13:21:11.668Z,67.1
2018-03-18T13:26:11.641Z,67.4
2018-03-18T13:31:11.652Z,65.8
2018-03-18T13:36:13.557Z,66.9
2018-03-18T13:41:18.615Z,66.9
2018-03-18T13:46:13.518Z,67
2018-03-18T13:51:13.556Z,66.6
2018-03-18T13:56:13.551Z,66.6
2018-03-18T14:01:13.665Z,65.8
2018-03-18T14:06:13.554Z,66.4
2018-03-18T14:11:13.947Z,67.8
2018-03-18T14:16:13.590Z,65.8
2018-03-18T14:21:13.591Z,67.9
2018-03-18T14:26:14.424Z,67.7
2018-03-18T14:31:14.855Z,67.5
2018-03-18T14:36:13.642Z,68
2018-03-18T14:41:13.574Z,68.4
2018-03-18T14:46:13.596Z,68.5
2018-03-18T14:51:14.215Z,68.4
2018-03-18T14:56:13.584Z,67.6
2018-03-18T15:01:13.561Z,69.1
2018-03-18T15:06:14.399Z,68.8
2018-03-18T15:11:15.225Z,68.8
2018-03-18T15:16:14.057Z,69.5
2018-03-18T15:21:13.666Z,68.6
2018-03-18T15:26:13.615Z,68.8
2018-03-18T15:31:13.619Z,69.6
2018-03-18T15:36:13.610Z,70
2018-03-18T15:41:13.588Z,70.7
2018-03-18T15:46:13.608Z,71.3
2018-03-18T15:51:13.632Z,70.2
2018-03-18T15:56:13.596Z,70.9
2018-03-18T16:01:13.598Z,71.6
2018-03-18T16:06:13.629Z,70.8
2018-03-18T16:11:13.653Z,72
2018-03-18T16:16:14.190Z,71.7
2018-03-18T16:21:13.622Z,71.5
2018-03-18T16:26:13.608Z,71.9
2018-03-18T16:31:13.694Z,71.6
2018-03-18T16:36:13.830Z,72.2
2018-03-18T16:41:13.686Z,73.2
2018-03-18T16:46:14.328Z,72.3
2018-03-18T16:51:13.638Z,73
2018-03-18T16:56:13.637Z,73.3
2018-03-18T17:01:15.273Z,73.5
2018-03-18T17:06:16.969Z,74.5
2018-03-18T17:11:13.628Z,74
2018-03-18T17:16:13.724Z,74.2
2018-03-18T17:21:13.707Z,74.2
2018-03-18T17:26:13.762Z,73.7
2018-03-18T17:31:13.651Z,74.7
2018-03-18T17:36:14.135Z,74.6
2018-03-18T17:41:13.708Z,74.7
2018-03-18T17:46:13.676Z,74.3
2018-03-18T17:51:13.880Z,74.4
2018-03-18T17:56:13.908Z,74.1
2018-03-18T18:01:14.250Z,74
2018-03-18T18:06:13.781Z,73.7
2018-03-18T18:11:13.864Z,73.9
2018-03-18T18:16:14.067Z,73
2018-03-18T18:21:13.745Z,73.6
2018-03-18T18:26:13.756Z,70.2
2018-03-18T18:31:15.536Z,70.5
2018-03-18T18:36:20.376Z,69.8
2018-03-18T18:41:15.261Z,70.2
2018-03-18T18:46:15.295Z,70.8
2018-03-18T18:51:15.402Z,69.9
2018-03-18T18:56:16.022Z,70.1
2018-03-18T19:01:15.213Z,69.4
2018-03-18T19:06:18.102Z,69.4
2018-03-18T19:11:15.339Z,69.7
2018-03-18T19:16:15.322Z,69.3
2018-03-18T19:21:15.286Z,68.8
2018-03-18T19:26:16.164Z,69.1
2018-03-18T19:31:15.312Z,70
2018-03-18T19:36:15.327Z,69.1
2018-03-18T19:41:15.515Z,69.6
2018-03-18T19:46:15.525Z,70.4
2018-03-18T19:51:15.731Z,69.6
2018-03-18T19:56:15.627Z,68.7
2018-03-18T20:01:15.743Z,69.1
2018-03-18T20:06:15.543Z,69.4
2018-03-18T20:11:15.556Z,69.8
2018-03-18T20:16:16.090Z,70.1
2018-03-18T20:21:15.562Z,70.5
2018-03-18T20:26:15.565Z,69.7
2018-03-18T20:31:15.562Z,68.9
2018-03-18T20:36:15.525Z,69.3
2018-03-18T20:41:15.670Z,68.6
2018-03-18T20:46:15.755Z,68.4
2018-03-18T20:51:15.596Z,68.2
2018-03-18T20:56:15.990Z,68.8
2018-03-18T21:01:15.473Z,68.7
2018-03-18T21:06:15.666Z,69.8
2018-03-18T21:11:15.606Z,69.2
2018-03-18T21:16:15.526Z,69.5
2018-03-18T21:21:16.117Z,69
2018-03-18T21:26:15.583Z,69.6
2018-03-18T21:31:15.534Z,69
2018-03-18T21:36:15.557Z,68.7
2018-03-18T21:41:15.790Z,68
2018-03-18T21:46:15.958Z,68.4
2018-03-18T21:51:15.604Z,69.7
2018-03-18T21:56:15.554Z,69.2
2018-03-18T22:01:15.569Z,69.1
2018-03-18T22:06:15.547Z,69.1
2018-03-18T22:11:15.551Z,69.2
2018-03-18T22:16:15.822Z,70.6
2018-03-18T22:21:15.514Z,69.7
2018-03-18T22:26:15.571Z,70.7
2018-03-18T22:31:15.564Z,70.5
2018-03-18T22:36:15.585Z,69.3
2018-03-18T22:41:15.732Z,69.4
2018-03-18T22:46:15.584Z,69.8
2018-03-18T22:51:15.817Z,69
2018-03-18T22:56:15.722Z,69.1
2018-03-18T23:01:15.580Z,69.3
2018-03-18T23:06:15.584Z,69.8
2018-03-18T23:11:15.736Z,70.3
2018-03-18T23:16:15.864Z,70.4
2018-03-18T23:21:15.729Z,71.4
2018-03-18T23:26:19.001Z,70
2018-03-18T23:31:24.099Z,70
2018-03-18T23:36:18.996Z,69.8
2018-03-18T23:41:19.219Z,70.2
2018-03-18T23:46:19.004Z,70.3
2018-03-18T23:51:19.147Z,70
2018-03-18T23:56:19.026Z,69.8
